Time;durP1;ratioP1;P1;durP2;ratioP2;P2;SDS_P1;SDS_P2;PMS_P1;PMS_P2;Temp;Humidity;BMP_temperature;BMP_pressure;BME280_temperature;BME280_humidity;BME280_pressure;Samples;Min_cycle;Max_cycle;Signal;HPM_P1;HPM_P2
2022/01/04 00:00:11;;;;;;;19.48;10.45;;;;;;;7.81;90.90;100136.19;4995016;28;20492;-55
2022/01/04 00:02:36;;;;;;;19.35;10.45;;;;;;;7.84;90.46;100136.72;4993535;28;20022;-55
2022/01/04 00:05:02;;;;;;;19.52;10.38;;;;;;;7.82;90.45;100128.78;4994752;28;20026;-56
2022/01/04 00:07:28;;;;;;;19.77;10.05;;;;;;;7.74;90.51;100116.53;4995121;28;20018;-55
2022/01/04 00:09:53;;;;;;;19.10;10.05;;;;;;;7.74;90.45;100111.00;4995065;28;20073;-57
2022/01/04 00:15:05;;;;;;;18.77;9.73;;;;;;;7.67;90.50;100102.34;4995142;28;20045;-56
2022/01/04 00:17:30;;;;;;;18.35;10.27;;;;;;;7.72;90.29;100104.19;4993970;28;20113;-56
2022/01/04 00:19:56;;;;;;;18.63;10.20;;;;;;;7.73;90.39;100098.38;4994300;28;20126;-56
2022/01/04 00:22:21;;;;;;;19.30;10.60;;;;;;;7.73;90.38;100103.88;4994425;28;20027;-56
2022/01/04 00:24:46;;;;;;;18.40;10.40;;;;;;;7.68;90.72;100095.72;4993755;28;20022;-56
2022/01/04 00:27:12;;;;;;;19.02;10.05;;;;;;;7.71;90.47;100089.59;4994501;28;20388;-56
2022/01/04 00:29:37;;;;;;;20.13;10.20;;;;;;;7.71;90.25;100086.03;4994405;28;20098;-56
2022/01/04 00:32:03;;;;;;;18.67;9.73;;;;;;;7.68;90.58;100079.19;4994321;28;20069;-55
2022/01/04 00:34:28;;;;;;;20.90;10.43;;;;;;;7.67;90.40;100060.22;4994029;28;20096;-56
2022/01/04 00:36:54;;;;;;;17.58;10.32;;;;;;;7.69;90.29;100056.06;4993959;28;20033;-56
2022/01/04 00:39:19;;;;;;;19.23;10.00;;;;;;;7.63;90.64;100055.34;4992884;28;20437;-56
2022/01/04 00:41:44;;;;;;;17.73;9.40;;;;;;;7.60;90.50;100039.44;4993633;28;20026;-58
2022/01/04 00:44:09;;;;;;;20.67;10.25;;;;;;;7.59;90.77;100035.03;4993893;28;20108;-56
2022/01/04 00:46:35;;;;;;;20.05;10.25;;;;;;;7.61;90.69;100035.56;4994189;28;20470;-56
2022/01/04 00:49:10;;;;;;;19.10;10.13;;;;;;;7.62;91.19;100034.44;4994473;28;20090;-55
2022/01/04 00:51:36;;;;;;;17.92;9.80;;;;;;;7.61;90.65;100041.06;4993829;28;20026;-56
2022/01/04 00:54:02;;;;;;;18.95;10.20;;;;;;;7.61;90.56;100027.31;4993675;28;20121;-56
2022/01/04 00:56:29;;;;;;;18.23;9.55;;;;;;;7.59;90.74;100025.97;4993683;28;20026;-56
2022/01/04 00:58:54;;;;;;;17.45;9.32;;;;;;;7.61;90.34;100037.47;4993749;28;20026;-56
2022/01/04 01:01:19;;;;;;;16.55;9.02;;;;;;;7.57;90.60;100022.72;4993228;28;20113;-56
2022/01/04 01:03:45;;;;;;;18.80;9.63;;;;;;;7.60;90.72;100022.91;4993931;28;20117;-56
2022/01/04 01:06:10;;;;;;;17.92;8.80;;;;;;;7.56;91.03;100019.13;4993606;28;20031;-56
2022/01/04 01:08:35;;;;;;;18.65;9.45;;;;;;;7.55;91.18;100011.19;4993755;28;20109;-56
2022/01/04 01:11:01;;;;;;;18.88;9.15;;;;;;;7.54;91.12;100004.06;4993597;28;20030;-56
2022/01/04 01:13:26;;;;;;;17.98;9.55;;;;;;;7.47;90.99;100005.28;4993593;28;20034;-56
2022/01/04 01:15:51;;;;;;;17.35;9.60;;;;;;;7.51;91.23;100018.44;4993059;28;20030;-55
2022/01/04 01:18:18;;;;;;;18.38;9.73;;;;;;;7.46;91.84;100011.91;4991752;28;20045;-56
2022/01/04 01:20:46;;;;;;;20.85;9.70;;;;;;;7.46;91.62;100013.84;4993673;28;20034;-56
2022/01/04 01:23:12;;;;;;;19.00;10.02;;;;;;;7.44;91.76;100011.38;4991947;28;20037;-56
2022/01/04 01:25:37;;;;;;;19.27;10.10;;;;;;;7.46;91.85;100003.66;4993290;28;20027;-56
2022/01/04 01:28:03;;;;;;;17.92;9.40;;;;;;;7.45;91.79;100004.78;4993358;28;20084;-56
2022/01/04 01:30:29;;;;;;;19.42;9.70;;;;;;;7.45;91.63;100002.00;4992460;28;20022;-56
2022/01/04 01:32:55;;;;;;;18.95;9.27;;;;;;;7.47;91.86;99985.19;4993638;28;20058;-56
2022/01/04 01:35:20;;;;;;;20.10;10.43;;;;;;;7.46;92.05;99987.13;4993504;28;20068;-56
2022/01/04 01:37:46;;;;;;;19.85;8.98;;;;;;;7.43;92.01;99986.94;4993876;28;20030;-58
2022/01/04 01:40:12;;;;;;;18.23;9.40;;;;;;;7.47;91.77;99985.19;4993411;28;20033;-56
2022/01/04 01:42:39;;;;;;;20.08;9.77;;;;;;;7.46;91.69;99978.06;4993037;28;20034;-56
2022/01/04 01:45:05;;;;;;;18.15;9.65;;;;;;;7.44;92.04;99972.06;4993188;28;20113;-56
2022/01/04 01:47:31;;;;;;;18.92;10.20;;;;;;;7.39;92.02;99974.91;4993396;28;20480;-56
2022/01/04 01:49:56;;;;;;;19.02;10.15;;;;;;;7.35;92.48;99974.69;4993584;28;20022;-56
2022/01/04 01:52:21;;;;;;;19.15;10.07;;;;;;;7.33;92.16;99964.00;4992991;28;20036;-56
2022/01/04 01:54:47;;;;;;;19.50;10.43;;;;;;;7.32;92.44;99953.31;4992937;28;20073;-56
2022/01/04 01:57:12;;;;;;;21.23;11.10;;;;;;;7.27;92.59;99957.00;4992984;28;20096;-56
2022/01/04 01:59:37;;;;;;;20.52;10.40;;;;;;;7.29;92.60;99964.94;4993378;28;20034;-56
2022/01/04 02:02:03;;;;;;;18.70;10.25;;;;;;;7.33;92.25;99961.25;4993062;28;20101;-56
2022/01/04 02:04:28;;;;;;;20.17;10.02;;;;;;;7.31;92.53;99962.69;4993099;28;20033;-56
2022/01/04 02:06:53;;;;;;;17.67;9.70;;;;;;;7.30;92.19;99950.84;4993078;28;20062;-56
2022/01/04 02:09:19;;;;;;;20.33;10.82;;;;;;;7.30;92.29;99950.84;4993377;28;20029;-56
2022/01/04 02:11:45;;;;;;;20.00;10.63;;;;;;;7.25;92.53;99950.97;4993166;28;20352;-56
2022/01/04 02:14:10;;;;;;;18.92;9.52;;;;;;;7.26;92.34;99941.59;4992871;28;20033;-56
2022/01/04 02:16:35;;;;;;;20.13;10.52;;;;;;;7.26;92.19;99936.09;4992885;28;20393;-56
2022/01/04 02:19:05;;;;;;;20.52;10.45;;;;;;;7.31;92.35;99937.94;4992735;28;20080;-56
2022/01/04 02:21:31;;;;;;;18.42;9.93;;;;;;;7.29;92.37;99934.66;4993371;28;20088;-56
2022/01/04 02:23:57;;;;;;;19.83;10.27;;;;;;;7.29;92.18;99915.41;4992852;28;20088;-56
2022/01/04 02:26:23;;;;;;;19.58;10.63;;;;;;;7.27;92.25;99915.72;4992948;28;20117;-56
2022/01/04 02:28:49;;;;;;;18.88;10.52;;;;;;;7.29;92.20;99907.16;4992847;28;20038;-56
2022/01/04 02:31:15;;;;;;;19.67;10.60;;;;;;;7.30;92.11;99915.09;4992715;28;20102;-57
2022/01/04 02:33:40;;;;;;;18.42;10.23;;;;;;;7.29;92.09;99915.41;4993105;28;20181;-57
2022/01/04 02:36:06;;;;;;;22.02;10.95;;;;;;;7.32;91.82;99912.84;4993219;28;20107;-56
2022/01/04 02:38:32;;;;;;;20.17;10.45;;;;;;;7.31;92.10;99904.91;4993012;28;20033;-58
2022/01/04 02:40:57;;;;;;;19.77;10.02;;;;;;;7.32;91.60;99909.28;4993215;28;20026;-56
2022/01/04 02:43:23;;;;;;;21.85;10.85;;;;;;;7.33;91.68;99903.47;4995875;28;20019;-56
2022/01/04 02:45:48;;;;;;;21.98;11.40;;;;;;;7.32;91.42;99901.84;4996184;28;20034;-56
2022/01/04 02:48:13;;;;;;;20.23;10.57;;;;;;;7.36;90.95;99899.28;4996205;28;20529;-58
2022/01/04 02:50:38;;;;;;;19.33;10.68;;;;;;;7.32;91.14;99896.34;4996334;28;20022;-58
2022/01/04 02:53:04;;;;;;;19.50;10.55;;;;;;;7.32;91.05;99888.09;4996509;28;20054;-57
2022/01/04 02:55:29;;;;;;;21.60;10.68;;;;;;;7.32;91.30;99884.53;4995969;28;20030;-55
2022/01/04 02:57:54;;;;;;;20.00;10.85;;;;;;;7.32;91.18;99888.09;4994930;28;20069;-56
2022/01/04 03:00:20;;;;;;;19.60;9.88;;;;;;;7.32;91.08;99879.84;4996222;28;20037;-57
2022/01/04 03:02:46;;;;;;;19.75;10.60;;;;;;;7.30;91.09;99884.81;4993987;28;20026;-56
2022/01/04 03:05:12;;;;;;;21.65;10.82;;;;;;;7.30;91.11;99875.78;4996053;28;20437;-56
2022/01/04 03:07:38;;;;;;;18.98;9.52;;;;;;;7.30;90.88;99867.50;4995641;28;20034;-56
2022/01/04 03:10:05;;;;;;;20.58;10.18;;;;;;;7.25;91.40;99859.34;4995160;28;20057;-56
2022/01/04 03:12:30;;;;;;;22.83;11.00;;;;;;;7.27;91.48;99868.94;4994702;28;20117;-55
2022/01/04 03:14:56;;;;;;;21.13;11.10;;;;;;;7.26;91.01;99861.81;4994876;28;20117;-56
2022/01/04 03:17:21;;;;;;;22.38;10.98;;;;;;;7.26;90.75;99850.81;4995072;28;20037;-56
2022/01/04 03:19:46;;;;;;;20.52;10.20;;;;;;;7.22;91.35;99852.53;4995076;28;20018;-56
2022/01/04 03:22:12;;;;;;;20.55;10.32;;;;;;;7.16;91.57;99842.78;4995603;28;20031;-56
2022/01/04 03:24:37;;;;;;;21.20;10.90;;;;;;;7.27;91.09;99843.38;4995300;28;20026;-56
2022/01/04 03:27:02;;;;;;;23.45;11.15;;;;;;;7.25;90.88;99835.44;4995457;28;20030;-56
2022/01/04 03:29:27;;;;;;;22.55;11.50;;;;;;;7.21;91.41;99823.41;4994296;28;20030;-58
2022/01/04 03:31:55;;;;;;;20.58;11.20;;;;;;;7.21;91.74;99822.59;4995003;28;20081;-56
2022/01/04 03:34:20;;;;;;;21.67;10.75;;;;;;;7.19;91.06;99814.63;4995317;28;20026;-56
2022/01/04 03:36:45;;;;;;;21.25;10.75;;;;;;;7.21;91.52;99817.91;4994724;28;20149;-56
2022/01/04 03:39:12;;;;;;;21.70;10.73;;;;;;;7.19;90.98;99806.38;4995160;28;20053;-56
2022/01/04 03:41:40;;;;;;;20.60;11.00;;;;;;;7.14;90.86;99787.25;4993960;28;20383;-56
2022/01/04 03:44:07;;;;;;;20.45;10.63;;;;;;;7.17;90.97;99790.19;4994832;28;20026;-56
2022/01/04 03:46:33;;;;;;;20.52;10.75;;;;;;;7.17;90.95;99781.94;4995119;28;20536;-56
2022/01/04 03:48:58;;;;;;;20.17;10.75;;;;;;;7.16;90.71;99769.31;4994323;28;20109;-56
2022/01/04 03:51:23;;;;;;;20.75;10.43;;;;;;;7.20;90.66;99763.19;4994714;28;20026;-56
2022/01/04 03:53:49;;;;;;;20.75;10.57;;;;;;;7.18;90.69;99763.50;4994172;28;20083;-55
2022/01/04 03:56:14;;;;;;;19.48;10.57;;;;;;;7.20;90.45;99769.50;4994953;28;20032;-56
2022/01/04 03:58:40;;;;;;;20.50;10.32;;;;;;;7.18;90.61;99764.31;4995013;28;20105;-56
2022/01/04 04:01:05;;;;;;;21.60;10.15;;;;;;;7.16;90.93;99752.81;4994552;28;20458;-56
2022/01/04 04:03:32;;;;;;;19.38;11.40;;;;;;;7.18;90.51;99744.25;4995087;28;20030;-57
2022/01/04 04:05:57;;;;;;;20.75;11.00;;;;;;;7.18;90.50;99735.97;4994799;28;20492;-56
2022/01/04 04:08:22;;;;;;;20.65;10.80;;;;;;;7.21;90.52;99734.56;4994468;28;20026;-56
2022/01/04 04:10:48;;;;;;;20.90;11.23;;;;;;;7.16;90.65;99736.31;4994335;28;20565;-56
2022/01/04 04:13:13;;;;;;;20.13;11.75;;;;;;;7.15;90.86;99733.88;4994946;28;20046;-58
2022/01/04 04:15:40;;;;;;;22.35;11.30;;;;;;;7.18;90.80;99741.47;4994273;28;20023;-56
2022/01/04 04:18:07;;;;;;;20.42;11.25;;;;;;;7.15;90.82;99736.63;4993251;28;20029;-56
2022/01/04 04:20:32;;;;;;;21.35;11.15;;;;;;;7.14;90.96;99733.03;4994648;28;20019;-56
2022/01/04 04:22:57;;;;;;;19.15;10.50;;;;;;;7.16;90.78;99724.50;4994093;28;20041;-56
2022/01/04 04:25:23;;;;;;;20.67;10.60;;;;;;;7.13;91.20;99714.13;4994349;28;20038;-56
2022/01/04 04:27:48;;;;;;;21.42;11.05;;;;;;;7.06;91.44;99703.53;4994381;28;20349;-58
2022/01/04 04:30:13;;;;;;;24.65;10.23;;;;;;;7.06;91.10;99709.03;4994405;28;20033;-54
2022/01/04 04:32:38;;;;;;;20.75;10.80;;;;;;;7.07;91.08;99707.91;4993977;28;20030;-55
2022/01/04 04:35:04;;;;;;;21.90;10.60;;;;;;;7.06;91.47;99713.72;4994302;28;20034;-55
2022/01/04 04:37:30;;;;;;;21.42;10.32;;;;;;;7.06;91.15;99709.03;4994062;28;20045;-56
2022/01/04 04:39:55;;;;;;;20.48;11.15;;;;;;;7.05;91.25;99710.16;4994578;28;20478;-56
2022/01/04 04:42:20;;;;;;;23.75;10.13;;;;;;;7.13;91.10;99717.66;4994531;28;20386;-55
2022/01/04 04:44:46;;;;;;;21.60;10.68;;;;;;;7.09;91.22;99707.59;4993916;28;20109;-54
2022/01/04 04:47:12;;;;;;;20.13;10.70;;;;;;;7.10;91.53;99714.72;4993953;28;20095;-55
2022/01/04 04:49:37;;;;;;;20.00;11.70;;;;;;;7.08;91.64;99706.78;4993998;28;20109;-55
2022/01/04 04:52:03;;;;;;;21.58;10.85;;;;;;;7.09;91.44;99704.84;4993973;28;20038;-55
2022/01/04 04:54:29;;;;;;;21.50;10.60;;;;;;;7.06;91.56;99709.03;4993556;28;20093;-55
2022/01/04 04:56:54;;;;;;;20.83;10.77;;;;;;;7.06;91.63;99703.53;4993854;28;20085;-55
2022/01/04 04:59:20;;;;;;;21.15;10.80;;;;;;;7.06;91.71;99713.72;4994162;28;20030;-57
2022/01/04 05:01:45;;;;;;;21.38;11.40;;;;;;;7.02;91.66;99708.03;4993659;28;20034;-55
2022/01/04 05:04:10;;;;;;;21.75;10.50;;;;;;;7.06;91.67;99710.97;4994060;28;20030;-56
2022/01/04 05:06:35;;;;;;;21.73;10.70;;;;;;;7.05;91.79;99698.34;4993734;28;20038;-55
2022/01/04 05:09:01;;;;;;;22.73;11.00;;;;;;;7.04;91.77;99692.03;4993023;28;20402;-58
2022/01/04 05:11:27;;;;;;;22.63;11.43;;;;;;;7.02;91.90;99688.78;4993744;28;20086;-56
2022/01/04 05:13:52;;;;;;;21.00;11.38;;;;;;;6.98;91.72;99687.78;4993625;28;20034;-54
2022/01/04 05:16:18;;;;;;;21.83;10.73;;;;;;;7.01;91.80;99703.66;4993293;28;20042;-56
2022/01/04 05:18:43;;;;;;;23.30;11.85;;;;;;;6.98;91.73;99705.09;4993572;28;20147;-56
2022/01/04 05:21:08;;;;;;;21.08;10.38;;;;;;;6.97;91.93;99688.91;4993289;28;20161;-56
2022/01/04 05:23:34;;;;;;;21.98;11.10;;;;;;;7.00;91.77;99683.59;4993202;28;20461;-55
2022/01/04 05:25:59;;;;;;;20.73;10.73;;;;;;;6.96;91.79;99679.84;4993522;28;20026;-57
2022/01/04 05:28:24;;;;;;;22.75;11.10;;;;;;;7.00;91.81;99680.84;4993454;28;20018;-56
2022/01/04 05:30:50;;;;;;;20.50;10.25;;;;;;;6.96;92.13;99674.34;4993764;28;20026;-57
2022/01/04 05:33:15;;;;;;;21.90;11.73;;;;;;;6.96;92.06;99670.78;4993331;28;20110;-55
2022/01/04 05:35:40;;;;;;;22.92;10.35;;;;;;;6.95;92.36;99667.22;4993475;28;20052;-54
2022/01/04 05:38:06;;;;;;;22.33;11.00;;;;;;;6.95;92.24;99666.38;4993227;28;20474;-54
2022/01/04 05:40:31;;;;;;;21.20;10.38;;;;;;;6.92;92.21;99656.03;4993527;28;20031;-55
2022/01/04 05:42:56;;;;;;;23.23;10.85;;;;;;;6.97;92.05;99645.72;4992866;28;20037;-56
2022/01/04 05:45:22;;;;;;;24.92;11.85;;;;;;;6.99;92.12;99646.22;4992494;28;20502;-58
2022/01/04 05:47:47;;;;;;;22.52;10.45;;;;;;;7.02;92.13;99642.06;4993282;28;20030;-56
2022/01/04 05:50:13;;;;;;;21.50;11.13;;;;;;;6.96;92.80;99635.84;4993216;28;20493;-55
2022/01/04 05:52:38;;;;;;;21.45;10.77;;;;;;;6.92;93.17;99632.09;4993293;28;20026;-55
2022/01/04 05:55:04;;;;;;;23.55;11.00;;;;;;;6.89;93.10;99629.97;4993031;28;20045;-55
2022/01/04 05:57:29;;;;;;;23.52;11.98;;;;;;;6.89;93.30;99621.75;4992956;28;20096;-54
2022/01/04 05:59:54;;;;;;;22.88;12.25;;;;;;;6.86;93.71;99627.84;4993016;28;20100;-55
2022/01/04 06:02:20;;;;;;;23.13;11.60;;;;;;;6.89;93.45;99648.41;4992606;28;20144;-55
2022/01/04 06:04:45;;;;;;;24.48;12.30;;;;;;;6.89;93.83;99640.16;4992759;28;20046;-54
2022/01/04 06:07:10;;;;;;;22.55;11.45;;;;;;;6.92;93.41;99643.09;4993145;28;20030;-55
2022/01/04 06:09:42;;;;;;;23.65;11.65;;;;;;;6.90;93.53;99641.78;4993172;28;20393;-55
2022/01/04 06:14:53;;;;;;;22.27;11.13;;;;;;;6.89;93.74;99624.47;4993212;28;20041;-58
2022/01/04 06:17:22;;;;;;;22.23;11.48;;;;;;;6.89;93.67;99621.75;4995030;28;20030;-56
2022/01/04 06:19:48;;;;;;;23.08;12.73;;;;;;;6.85;94.15;99621.53;4996992;28;20042;-58
2022/01/04 06:22:13;;;;;;;21.90;11.93;;;;;;;6.84;94.13;99622.66;4996775;28;20026;-57
2022/01/04 06:24:38;;;;;;;22.58;11.95;;;;;;;6.82;94.21;99624.91;4996912;28;20030;-56
2022/01/04 06:27:06;;;;;;;22.17;11.38;;;;;;;6.87;93.66;99616.53;4996290;28;20497;-55
2022/01/04 06:29:31;;;;;;;23.33;12.40;;;;;;;6.88;93.26;99614.59;4996510;28;20091;-58
2022/01/04 06:31:56;;;;;;;23.83;11.90;;;;;;;6.87;94.10;99619.28;4996415;28;20474;-55
2022/01/04 06:34:22;;;;;;;22.58;12.20;;;;;;;6.84;93.86;99608.09;4996596;28;20054;-58
2022/01/04 06:36:47;;;;;;;23.33;12.32;;;;;;;6.90;94.06;99628.84;4996310;28;20029;-56
2022/01/04 06:39:12;;;;;;;22.83;12.05;;;;;;;6.89;93.81;99632.72;4996704;28;20026;-58
2022/01/04 06:41:37;;;;;;;22.38;12.02;;;;;;;6.90;93.79;99634.34;4995422;28;20033;-58
2022/01/04 06:44:03;;;;;;;21.80;11.90;;;;;;;6.89;94.05;99609.91;4996593;28;20027;-58
2022/01/04 06:46:29;;;;;;;23.17;12.13;;;;;;;6.88;94.37;99603.63;4996577;28;20496;-56
2022/01/04 06:48:54;;;;;;;23.65;12.85;;;;;;;6.87;94.92;99607.47;4995216;28;20046;-57
2022/01/04 06:51:19;;;;;;;23.75;12.63;;;;;;;6.87;94.67;99610.22;4996587;28;20382;-59
2022/01/04 06:53:45;;;;;;;23.52;12.27;;;;;;;6.85;95.03;99609.72;4996291;28;20516;-57
2022/01/04 06:56:10;;;;;;;22.13;12.13;;;;;;;6.86;95.04;99600.34;4996453;28;20027;-56
2022/01/04 06:58:35;;;;;;;23.23;13.63;;;;;;;6.86;94.96;99592.91;4996282;28;20030;-55
2022/01/04 07:01:01;;;;;;;23.92;13.35;;;;;;;6.85;95.19;99587.72;4996338;28;20038;-56
2022/01/04 07:03:26;;;;;;;24.08;13.27;;;;;;;6.87;94.95;99585.50;4996047;28;20515;-55
2022/01/04 07:05:51;;;;;;;24.33;13.10;;;;;;;6.88;94.84;99584.38;4994881;28;20030;-57
2022/01/04 07:08:16;;;;;;;23.00;12.85;;;;;;;6.90;94.95;99579.34;4991129;28;20609;-56
2022/01/04 07:10:42;;;;;;;22.85;13.15;;;;;;;6.87;95.03;99586.28;4974457;28;20048;-55
2022/01/04 07:13:07;;;;;;;24.58;13.68;;;;;;;6.87;95.16;99580.00;4983643;28;20496;-55
2022/01/04 07:15:32;;;;;;;24.40;12.65;;;;;;;6.84;95.23;99575.94;4993951;28;20497;-56
2022/01/04 07:17:58;;;;;;;26.38;12.77;;;;;;;6.82;95.63;99571.84;4993824;28;20444;-56
2022/01/04 07:20:23;;;;;;;25.83;13.85;;;;;;;6.82;95.21;99569.94;4993795;28;20375;-56
2022/01/04 07:22:49;;;;;;;24.55;12.95;;;;;;;6.79;95.67;99567.78;4993763;28;20022;-55
2022/01/04 07:25:14;;;;;;;24.13;12.40;;;;;;;6.82;95.40;99563.59;4993751;28;20121;-56
2022/01/04 07:27:39;;;;;;;25.17;13.20;;;;;;;6.81;95.00;99567.47;4992717;28;20121;-58
2022/01/04 07:30:05;;;;;;;24.17;14.20;;;;;;;6.74;95.56;99551.44;4993430;28;20081;-57
2022/01/04 07:32:31;;;;;;;25.73;14.68;;;;;;;6.72;95.72;99540.75;4993451;28;20030;-55
2022/01/04 07:34:56;;;;;;;26.00;13.82;;;;;;;6.68;96.04;99544.44;4993544;28;20089;-56
2022/01/04 07:37:22;;;;;;;25.83;14.77;;;;;;;6.69;96.26;99540.56;4993484;28;20023;-56
2022/01/04 07:39:47;;;;;;;27.58;15.57;;;;;;;6.65;96.13;99532.13;4993428;28;20494;-56
2022/01/04 07:42:13;;;;;;;25.25;14.55;;;;;;;6.64;96.54;99535.19;4993386;28;20030;-56
2022/01/04 07:44:38;;;;;;;26.98;14.32;;;;;;;6.67;96.11;99526.31;4993557;28;20077;-56
2022/01/04 07:47:03;;;;;;;25.98;14.60;;;;;;;6.67;96.11;99531.81;4993329;28;20034;-56
2022/01/04 07:49:29;;;;;;;28.42;15.13;;;;;;;6.66;96.13;99538.44;4993236;28;20064;-56
2022/01/04 07:51:54;;;;;;;27.33;15.52;;;;;;;6.62;96.12;99542.94;4993198;28;20034;-56
2022/01/04 07:54:19;;;;;;;27.40;15.15;;;;;;;6.63;96.46;99552.81;4993014;28;20134;-56
2022/01/04 07:56:44;;;;;;;27.30;14.85;;;;;;;6.69;96.11;99548.81;4992747;28;20022;-56
2022/01/04 07:59:10;;;;;;;25.88;14.23;;;;;;;6.70;96.17;99550.44;4993431;28;20474;-56
2022/01/04 08:01:35;;;;;;;26.20;14.73;;;;;;;6.74;96.23;99562.44;4993062;28;20076;-56
2022/01/04 08:04:00;;;;;;;25.60;14.77;;;;;;;6.76;95.78;99556.63;4990844;28;20159;-56
2022/01/04 08:06:27;;;;;;;27.63;14.90;;;;;;;6.79;96.06;99556.00;4992618;28;20042;-56
2022/01/04 08:08:53;;;;;;;28.88;14.85;;;;;;;6.74;96.06;99542.38;4992873;28;20112;-57
2022/01/04 08:11:19;;;;;;;25.67;14.35;;;;;;;6.74;96.30;99542.38;4992887;28;20470;-56
2022/01/04 08:13:44;;;;;;;26.15;14.15;;;;;;;6.71;96.58;99528.13;4992829;28;20031;-56
2022/01/04 08:16:10;;;;;;;26.48;14.73;;;;;;;6.71;96.33;99533.63;4992737;28;20084;-57
2022/01/04 08:18:35;;;;;;;28.25;15.35;;;;;;;6.70;96.66;99543.00;4992721;28;20062;-56
2022/01/04 08:21:04;;;;;;;28.77;15.02;;;;;;;6.72;96.27;99543.50;4992337;28;20026;-57
2022/01/04 08:23:30;;;;;;;27.05;15.05;;;;;;;6.79;95.99;99548.56;4990947;28;20030;-56
2022/01/04 08:25:56;;;;;;;26.92;15.23;;;;;;;6.77;95.94;99545.31;4992665;28;20034;-56
2022/01/04 08:28:21;;;;;;;26.35;14.52;;;;;;;6.81;95.80;99554.56;4992474;28;20049;-56
2022/01/04 08:30:46;;;;;;;29.42;15.10;;;;;;;6.82;95.92;99553.44;4992463;28;20028;-56
2022/01/04 08:33:12;;;;;;;32.67;15.30;;;;;;;6.85;95.78;99544.53;4991250;28;20037;-56
2022/01/04 08:35:38;;;;;;;27.58;14.80;;;;;;;6.87;95.81;99553.28;4992525;28;20104;-56
2022/01/04 08:38:05;;;;;;;28.98;15.43;;;;;;;6.92;95.42;99551.56;4992282;28;20547;-56
2022/01/04 08:40:31;;;;;;;29.13;14.82;;;;;;;6.90;95.79;99554.59;4991817;28;20030;-56
2022/01/04 08:42:56;;;;;;;28.52;15.35;;;;;;;6.94;95.22;99560.31;4992005;28;20168;-54
2022/01/04 08:45:23;;;;;;;27.75;15.60;;;;;;;6.94;95.45;99552.06;4990580;28;20062;-57
2022/01/04 08:47:49;;;;;;;28.80;15.73;;;;;;;6.96;95.44;99569.88;4991602;28;20126;-57
2022/01/04 08:50:15;;;;;;;28.67;15.70;;;;;;;6.95;95.31;99576.50;4992303;28;20489;-56
2022/01/04 08:52:40;;;;;;;30.70;16.08;;;;;;;7.01;94.85;99585.44;4991972;28;20164;-55
2022/01/04 08:55:07;;;;;;;29.42;16.90;;;;;;;7.02;94.62;99581.56;4992077;28;20068;-57
2022/01/04 08:57:32;;;;;;;29.67;15.57;;;;;;;7.07;94.39;99575.13;4991894;28;20445;-55
2022/01/04 08:59:58;;;;;;;29.88;15.25;;;;;;;7.06;94.78;99593.53;4991615;28;20030;-56
2022/01/04 09:02:24;;;;;;;30.27;15.75;;;;;;;7.08;94.43;99591.28;4990134;28;20026;-56
2022/01/04 09:04:49;;;;;;;30.23;15.32;;;;;;;7.08;94.63;99587.75;4991791;28;20483;-56
2022/01/04 09:07:16;;;;;;;28.92;15.55;;;;;;;7.10;94.36;99582.72;4991941;28;20052;-56
2022/01/04 09:09:41;;;;;;;30.25;15.75;;;;;;;7.12;94.36;99577.72;4992304;28;20028;-56
2022/01/04 09:12:07;;;;;;;31.08;16.23;;;;;;;7.10;94.55;99569.78;4992160;28;20030;-56
2022/01/04 09:20:01;;;;;;;30.60;15.68;;;;;;;7.18;94.50;99569.03;4991964;28;20037;-56
2022/01/04 09:22:27;;;;;;;31.75;16.92;;;;;;;7.21;94.29;99564.03;4991810;28;20405;-57
2022/01/04 09:24:52;;;;;;;31.23;15.60;;;;;;;7.21;94.13;99551.06;4991568;28;20410;-57
2022/01/04 09:27:17;;;;;;;30.05;16.13;;;;;;;7.22;93.57;99569.22;4991628;28;20462;-57
2022/01/04 09:29:43;;;;;;;31.80;16.92;;;;;;;7.20;93.82;99571.44;4991532;28;20030;-56
2022/01/04 09:32:13;;;;;;;30.65;16.55;;;;;;;7.27;93.93;99588.34;4991631;28;20060;-57
2022/01/04 09:34:39;;;;;;;31.05;16.00;;;;;;;7.21;93.56;99569.53;4991360;28;20054;-56
2022/01/04 09:37:04;;;;;;;31.10;16.27;;;;;;;7.30;93.70;99598.69;4990962;28;20029;-55
2022/01/04 09:39:29;;;;;;;32.17;16.20;;;;;;;7.31;93.28;99594.03;4991045;28;20027;-55
2022/01/04 09:41:59;;;;;;;34.25;17.95;;;;;;;7.29;93.17;99591.56;4989567;28;20066;-56
2022/01/04 09:44:27;;;;;;;32.42;18.27;;;;;;;7.29;93.47;99582.53;4991211;28;20445;-57
2022/01/04 09:46:52;;;;;;;33.17;17.60;;;;;;;7.33;92.84;99587.06;4991036;28;20398;-57
2022/01/04 09:49:18;;;;;;;32.17;17.17;;;;;;;7.30;93.28;99595.16;4989942;28;20030;-57
2022/01/04 09:51:43;;;;;;;33.15;17.60;;;;;;;7.32;93.22;99584.66;4992736;28;20038;-56
2022/01/04 09:54:09;;;;;;;32.85;16.95;;;;;;;7.33;92.86;99592.56;4994460;28;20081;-56
2022/01/04 09:56:34;;;;;;;32.70;17.88;;;;;;;7.37;93.05;99592.75;4995322;28;20041;-57
2022/01/04 09:59:00;;;;;;;33.63;18.13;;;;;;;7.36;92.97;99573.81;4995005;28;20038;-56
2022/01/04 10:01:32;;;;;;;33.70;17.50;;;;;;;7.27;93.42;99563.59;4994939;28;20061;-57
2022/01/04 10:03:58;;;;;;;33.88;18.13;;;;;;;7.33;93.02;99569.75;4973998;28;20034;-56
2022/01/04 10:06:23;;;;;;;36.00;18.85;;;;;;;7.36;92.99;99571.88;4975840;28;20101;-55
2022/01/04 10:08:55;;;;;;;32.47;18.02;;;;;;;7.31;92.90;99563.75;4975689;28;20502;-56
2022/01/04 10:11:32;;;;;;;34.80;17.73;;;;;;;7.35;92.37;99573.00;4975312;28;20031;-53
2022/01/04 10:14:18;;;;;;;35.20;18.65;;;;;;;7.33;92.40;99567.81;4994785;28;20042;-56
2022/01/04 10:16:54;;;;;;;33.75;18.63;;;;;;;7.43;92.40;99568.69;4994765;28;20109;-56
2022/01/04 10:19:42;;;;;;;33.95;17.77;;;;;;;7.46;92.15;99563.34;4994883;28;20050;-55
2022/01/04 10:22:21;;;;;;;34.17;18.30;;;;;;;7.47;91.72;99556.72;4994016;28;20391;-56
2022/01/04 10:24:50;;;;;;;33.67;18.77;;;;;;;7.41;92.26;99535.97;4994928;28;20133;-56
2022/01/04 10:27:36;;;;;;;35.72;19.20;;;;;;;7.47;92.24;99537.44;4994213;28;20092;-56
2022/01/04 10:30:33;;;;;;;34.60;18.00;;;;;;;7.49;92.30;99529.69;4994951;28;20030;-56
2022/01/04 10:33:07;;;;;;;34.65;18.20;;;;;;;7.39;92.49;99520.91;4994390;28;20050;-56
2022/01/04 10:35:55;;;;;;;33.90;18.42;;;;;;;7.47;92.77;99545.72;4994540;28;20022;-56
2022/01/04 10:38:24;;;;;;;35.05;19.35;;;;;;;7.50;92.12;99536.00;4994663;28;20068;-56
2022/01/04 10:40:57;;;;;;;36.25;18.67;;;;;;;7.57;92.11;99538.31;4994355;28;20018;-56
2022/01/04 10:43:27;;;;;;;32.33;18.97;;;;;;;7.55;91.91;99521.28;4994540;28;20061;-56
2022/01/04 10:45:54;;;;;;;34.90;17.95;;;;;;;7.59;91.41;99527.78;4998587;28;20289;-55
2022/01/04 10:48:22;;;;;;;36.13;19.48;;;;;;;7.54;91.81;99526.00;4993411;28;20101;-56
2022/01/04 10:50:59;;;;;;;36.03;18.75;;;;;;;7.62;91.79;99532.63;4994078;28;20039;-56
2022/01/04 10:53:35;;;;;;;34.28;18.67;;;;;;;7.59;91.96;99520.34;4994154;28;20082;-56
2022/01/04 10:56:03;;;;;;;33.80;18.92;;;;;;;7.64;91.73;99522.13;4993695;28;20031;-56
2022/01/04 10:58:32;;;;;;;39.28;20.20;;;;;;;7.67;91.36;99532.50;4993985;28;20026;-58
2022/01/04 11:01:02;;;;;;;35.25;18.15;;;;;;;7.68;91.85;99533.31;4993507;28;20045;-55
2022/01/04 11:03:31;;;;;;;33.38;18.55;;;;;;;7.68;91.48;99541.56;4991919;28;20140;-55
2022/01/04 11:05:59;;;;;;;34.53;18.98;;;;;;;7.71;91.10;99543.69;4994143;28;20027;-56
2022/01/04 11:08:24;;;;;;;36.10;19.00;;;;;;;7.72;90.79;99534.31;4991711;28;20034;-56
2022/01/04 11:10:51;;;;;;;35.95;19.55;;;;;;;7.70;91.44;99536.56;4994097;28;20057;-56
2022/01/04 11:13:16;;;;;;;35.75;19.48;;;;;;;7.70;91.69;99533.81;4993714;28;20030;-55
2022/01/04 11:15:42;;;;;;;36.00;18.70;;;;;;;7.71;91.56;99532.69;4993459;28;20030;-56
2022/01/04 11:18:08;;;;;;;34.78;19.17;;;;;;;7.69;91.26;99527.50;4994084;28;20034;-56
2022/01/04 11:20:38;;;;;;;35.58;20.10;;;;;;;7.62;91.87;99521.63;4993858;28;20026;-56
2022/01/04 11:23:03;;;;;;;37.83;20.30;;;;;;;7.63;92.03;99518.56;4993465;28;20084;-58
2022/01/04 11:25:30;;;;;;;35.72;19.60;;;;;;;7.63;92.13;99534.25;4993653;28;20034;-56
2022/01/04 11:27:57;;;;;;;35.47;19.33;;;;;;;7.62;92.69;99544.47;4993242;28;20490;-56
2022/01/04 11:30:35;;;;;;;33.78;18.88;;;;;;;7.72;91.58;99559.88;4993756;28;20023;-56